sensor_id;sensor_type;location;lat;lon;timestamp;P1;durP1;ratioP1;P2;durP2;ratioP2
72856;SDS011;62742;52.136;4.500;2022-08-19T00:01:54;11.50;;;6.45;;
72856;SDS011;62742;52.136;4.500;2022-08-19T00:04:24;9.68;;;5.88;;
72856;SDS011;62742;52.136;4.500;2022-08-19T00:06:59;10.38;;;5.90;;
72856;SDS011;62742;52.136;4.500;2022-08-19T00:09:26;10.45;;;6.25;;
72856;SDS011;62742;52.136;4.500;2022-08-19T00:11:55;10.30;;;5.88;;
72856;SDS011;62742;52.136;4.500;2022-08-19T00:14:24;14.65;;;5.88;;
72856;SDS011;62742;52.136;4.500;2022-08-19T00:16:52;10.20;;;6.32;;
72856;SDS011;62742;52.136;4.500;2022-08-19T00:19:20;11.15;;;6.05;;
72856;SDS011;62742;52.136;4.500;2022-08-19T00:21:48;11.30;;;6.68;;
72856;SDS011;62742;52.136;4.500;2022-08-19T00:24:15;8.77;;;5.28;;
72856;SDS011;62742;52.136;4.500;2022-08-19T00:26:42;10.15;;;6.45;;
72856;SDS011;62742;52.136;4.500;2022-08-19T00:29:11;10.57;;;5.53;;
72856;SDS011;62742;52.136;4.500;2022-08-19T00:31:41;9.50;;;5.55;;
72856;SDS011;62742;52.136;4.500;2022-08-19T00:34:09;10.35;;;5.88;;
72856;SDS011;62742;52.136;4.500;2022-08-19T00:36:38;10.20;;;6.97;;
72856;SDS011;62742;52.136;4.500;2022-08-19T00:39:08;10.07;;;5.43;;
72856;SDS011;62742;52.136;4.500;2022-08-19T00:41:36;10.32;;;6.38;;
72856;SDS011;62742;52.136;4.500;2022-08-19T00:44:08;9.15;;;5.70;;
72856;SDS011;62742;52.136;4.500;2022-08-19T00:46:41;9.02;;;5.15;;
72856;SDS011;62742;52.136;4.500;2022-08-19T00:49:21;11.63;;;6.57;;
72856;SDS011;62742;52.136;4.500;2022-08-19T00:51:54;11.18;;;6.22;;
72856;SDS011;62742;52.136;4.500;2022-08-19T00:54:32;13.77;;;7.32;;
72856;SDS011;62742;52.136;4.500;2022-08-19T00:56:59;11.57;;;7.40;;
72856;SDS011;62742;52.136;4.500;2022-08-19T00:59:34;11.35;;;7.07;;
72856;SDS011;62742;52.136;4.500;2022-08-19T01:02:06;20.00;;;10.35;;
72856;SDS011;62742;52.136;4.500;2022-08-19T01:04:33;21.13;;;10.65;;
72856;SDS011;62742;52.136;4.500;2022-08-19T01:07:01;25.67;;;12.10;;
72856;SDS011;62742;52.136;4.500;2022-08-19T01:09:29;18.98;;;9.35;;
72856;SDS011;62742;52.136;4.500;2022-08-19T01:11:56;13.75;;;8.05;;
72856;SDS011;62742;52.136;4.500;2022-08-19T01:14:23;9.38;;;5.20;;
72856;SDS011;62742;52.136;4.500;2022-08-19T01:16:51;9.15;;;5.10;;
72856;SDS011;62742;52.136;4.500;2022-08-19T01:22:06;8.80;;;5.07;;
72856;SDS011;62742;52.136;4.500;2022-08-19T01:24:42;7.50;;;4.72;;
72856;SDS011;62742;52.136;4.500;2022-08-19T01:27:09;9.52;;;4.85;;
72856;SDS011;62742;52.136;4.500;2022-08-19T01:29:40;9.75;;;5.00;;
72856;SDS011;62742;52.136;4.500;2022-08-19T01:32:12;10.65;;;5.43;;
72856;SDS011;62742;52.136;4.500;2022-08-19T01:34:42;10.05;;;5.53;;
72856;SDS011;62742;52.136;4.500;2022-08-19T01:37:13;9.15;;;6.20;;
72856;SDS011;62742;52.136;4.500;2022-08-19T01:39:41;9.75;;;6.07;;
72856;SDS011;62742;52.136;4.500;2022-08-19T01:42:09;9.40;;;5.50;;
72856;SDS011;62742;52.136;4.500;2022-08-19T01:44:38;15.38;;;8.45;;
72856;SDS011;62742;52.136;4.500;2022-08-19T01:47:09;10.48;;;5.75;;
72856;SDS011;62742;52.136;4.500;2022-08-19T01:49:36;13.82;;;6.60;;
72856;SDS011;62742;52.136;4.500;2022-08-19T01:52:04;12.60;;;7.30;;
72856;SDS011;62742;52.136;4.500;2022-08-19T01:54:32;10.98;;;6.63;;
72856;SDS011;62742;52.136;4.500;2022-08-19T01:57:07;13.90;;;6.45;;
72856;SDS011;62742;52.136;4.500;2022-08-19T01:59:38;11.32;;;6.75;;
72856;SDS011;62742;52.136;4.500;2022-08-19T02:02:08;14.48;;;7.82;;
72856;SDS011;62742;52.136;4.500;2022-08-19T02:04:35;11.77;;;6.28;;
72856;SDS011;62742;52.136;4.500;2022-08-19T02:07:06;14.73;;;9.52;;
72856;SDS011;62742;52.136;4.500;2022-08-19T02:09:34;11.35;;;6.50;;
72856;SDS011;62742;52.136;4.500;2022-08-19T02:12:01;11.27;;;7.35;;
72856;SDS011;62742;52.136;4.500;2022-08-19T02:14:30;12.05;;;7.20;;
72856;SDS011;62742;52.136;4.500;2022-08-19T02:16:56;13.85;;;7.28;;
72856;SDS011;62742;52.136;4.500;2022-08-19T02:19:23;12.18;;;6.45;;
72856;SDS011;62742;52.136;4.500;2022-08-19T02:21:50;10.25;;;5.88;;
72856;SDS011;62742;52.136;4.500;2022-08-19T02:24:16;10.95;;;5.97;;
72856;SDS011;62742;52.136;4.500;2022-08-19T02:26:43;12.07;;;6.55;;
72856;SDS011;62742;52.136;4.500;2022-08-19T02:29:09;14.13;;;7.53;;
72856;SDS011;62742;52.136;4.500;2022-08-19T02:31:36;15.73;;;8.25;;
72856;SDS011;62742;52.136;4.500;2022-08-19T02:34:03;11.32;;;7.47;;
72856;SDS011;62742;52.136;4.500;2022-08-19T02:36:29;14.05;;;7.43;;
72856;SDS011;62742;52.136;4.500;2022-08-19T02:38:56;13.82;;;7.97;;
72856;SDS011;62742;52.136;4.500;2022-08-19T02:41:24;42.20;;;19.73;;
72856;SDS011;62742;52.136;4.500;2022-08-19T02:43:56;25.15;;;15.18;;
72856;SDS011;62742;52.136;4.500;2022-08-19T02:46:27;25.98;;;15.15;;
72856;SDS011;62742;52.136;4.500;2022-08-19T02:48:59;63.70;;;25.63;;
72856;SDS011;62742;52.136;4.500;2022-08-19T02:51:38;39.67;;;21.38;;
72856;SDS011;62742;52.136;4.500;2022-08-19T02:54:08;37.40;;;19.65;;
72856;SDS011;62742;52.136;4.500;2022-08-19T02:56:38;36.85;;;19.67;;
72856;SDS011;62742;52.136;4.500;2022-08-19T02:59:07;32.97;;;18.55;;
72856;SDS011;62742;52.136;4.500;2022-08-19T03:01:37;46.35;;;25.27;;
72856;SDS011;62742;52.136;4.500;2022-08-19T03:04:06;46.85;;;22.83;;
72856;SDS011;62742;52.136;4.500;2022-08-19T03:06:37;32.17;;;19.30;;
72856;SDS011;62742;52.136;4.500;2022-08-19T03:09:07;34.83;;;19.48;;
72856;SDS011;62742;52.136;4.500;2022-08-19T03:11:34;71.95;;;31.95;;
72856;SDS011;62742;52.136;4.500;2022-08-19T03:14:01;51.00;;;26.63;;
72856;SDS011;62742;52.136;4.500;2022-08-19T03:16:32;49.40;;;23.77;;
72856;SDS011;62742;52.136;4.500;2022-08-19T03:19:07;60.80;;;29.38;;
72856;SDS011;62742;52.136;4.500;2022-08-19T03:21:33;60.47;;;29.67;;
72856;SDS011;62742;52.136;4.500;2022-08-19T03:24:02;73.55;;;33.88;;
72856;SDS011;62742;52.136;4.500;2022-08-19T03:26:34;94.15;;;37.30;;
72856;SDS011;62742;52.136;4.500;2022-08-19T03:29:06;109.43;;;43.17;;
72856;SDS011;62742;52.136;4.500;2022-08-19T03:31:34;116.28;;;43.00;;
72856;SDS011;62742;52.136;4.500;2022-08-19T03:34:01;114.13;;;43.20;;
72856;SDS011;62742;52.136;4.500;2022-08-19T03:36:27;100.78;;;41.35;;
72856;SDS011;62742;52.136;4.500;2022-08-19T03:38:55;71.18;;;33.85;;
72856;SDS011;62742;52.136;4.500;2022-08-19T03:41:28;107.32;;;44.17;;
72856;SDS011;62742;52.136;4.500;2022-08-19T03:44:03;104.75;;;42.13;;
72856;SDS011;62742;52.136;4.500;2022-08-19T03:46:31;103.65;;;40.80;;
72856;SDS011;62742;52.136;4.500;2022-08-19T03:49:00;81.95;;;37.00;;
72856;SDS011;62742;52.136;4.500;2022-08-19T03:51:34;75.78;;;35.08;;
72856;SDS011;62742;52.136;4.500;2022-08-19T03:54:05;111.70;;;44.55;;
72856;SDS011;62742;52.136;4.500;2022-08-19T03:56:36;125.45;;;45.60;;
72856;SDS011;62742;52.136;4.500;2022-08-19T03:59:06;103.18;;;41.55;;
72856;SDS011;62742;52.136;4.500;2022-08-19T04:01:39;131.07;;;47.70;;
72856;SDS011;62742;52.136;4.500;2022-08-19T04:04:05;143.32;;;48.17;;
72856;SDS011;62742;52.136;4.500;2022-08-19T04:06:33;76.32;;;35.35;;
72856;SDS011;62742;52.136;4.500;2022-08-19T04:09:04;101.85;;;41.25;;
72856;SDS011;62742;52.136;4.500;2022-08-19T04:11:34;182.15;;;56.97;;
72856;SDS011;62742;52.136;4.500;2022-08-19T04:14:08;107.65;;;42.20;;
72856;SDS011;62742;52.136;4.500;2022-08-19T04:16:37;134.25;;;46.20;;
72856;SDS011;62742;52.136;4.500;2022-08-19T04:19:04;81.88;;;37.33;;
72856;SDS011;62742;52.136;4.500;2022-08-19T04:21:33;99.22;;;42.45;;
72856;SDS011;62742;52.136;4.500;2022-08-19T04:24:00;72.03;;;35.60;;
72856;SDS011;62742;52.136;4.500;2022-08-19T04:26:29;98.55;;;40.10;;
72856;SDS011;62742;52.136;4.500;2022-08-19T04:29:00;105.72;;;44.55;;
72856;SDS011;62742;52.136;4.500;2022-08-19T04:31:32;129.48;;;49.03;;
72856;SDS011;62742;52.136;4.500;2022-08-19T04:34:04;162.43;;;52.55;;
72856;SDS011;62742;52.136;4.500;2022-08-19T04:36:34;141.70;;;53.25;;
72856;SDS011;62742;52.136;4.500;2022-08-19T04:39:05;167.10;;;56.72;;
72856;SDS011;62742;52.136;4.500;2022-08-19T04:41:39;172.18;;;59.00;;
72856;SDS011;62742;52.136;4.500;2022-08-19T04:44:24;206.38;;;63.55;;
72856;SDS011;62742;52.136;4.500;2022-08-19T04:46:51;182.43;;;60.83;;
72856;SDS011;62742;52.136;4.500;2022-08-19T04:49:19;193.48;;;64.15;;
72856;SDS011;62742;52.136;4.500;2022-08-19T04:51:49;198.23;;;62.53;;
72856;SDS011;62742;52.136;4.500;2022-08-19T04:54:20;219.13;;;64.60;;
72856;SDS011;62742;52.136;4.500;2022-08-19T04:56:51;212.38;;;66.25;;
72856;SDS011;62742;52.136;4.500;2022-08-19T04:59:19;192.75;;;63.53;;
72856;SDS011;62742;52.136;4.500;2022-08-19T05:01:47;222.50;;;67.00;;
72856;SDS011;62742;52.136;4.500;2022-08-19T05:04:17;199.32;;;63.10;;
72856;SDS011;62742;52.136;4.500;2022-08-19T05:06:48;190.93;;;64.47;;
72856;SDS011;62742;52.136;4.500;2022-08-19T05:09:15;203.65;;;64.90;;
72856;SDS011;62742;52.136;4.500;2022-08-19T05:11:43;236.05;;;69.80;;
72856;SDS011;62742;52.136;4.500;2022-08-19T05:14:11;207.25;;;62.85;;
72856;SDS011;62742;52.136;4.500;2022-08-19T05:16:39;205.70;;;62.97;;
72856;SDS011;62742;52.136;4.500;2022-08-19T05:19:06;191.32;;;61.03;;
72856;SDS011;62742;52.136;4.500;2022-08-19T05:21:53;192.17;;;59.83;;
72856;SDS011;62742;52.136;4.500;2022-08-19T05:24:38;178.88;;;59.00;;
72856;SDS011;62742;52.136;4.500;2022-08-19T05:27:05;176.65;;;58.47;;
72856;SDS011;62742;52.136;4.500;2022-08-19T05:29:32;166.90;;;55.67;;
72856;SDS011;62742;52.136;4.500;2022-08-19T05:32:01;184.35;;;59.60;;
72856;SDS011;62742;52.136;4.500;2022-08-19T05:34:31;163.20;;;55.80;;
72856;SDS011;62742;52.136;4.500;2022-08-19T05:36:59;152.90;;;51.95;;
72856;SDS011;62742;52.136;4.500;2022-08-19T05:39:29;148.27;;;54.65;;
72856;SDS011;62742;52.136;4.500;2022-08-19T05:41:59;140.20;;;53.53;;
72856;SDS011;62742;52.136;4.500;2022-08-19T05:44:33;130.68;;;51.17;;
72856;SDS011;62742;52.136;4.500;2022-08-19T05:47:05;143.90;;;52.20;;
72856;SDS011;62742;52.136;4.500;2022-08-19T05:49:34;135.32;;;48.90;;
72856;SDS011;62742;52.136;4.500;2022-08-19T05:52:04;106.88;;;46.38;;
72856;SDS011;62742;52.136;4.500;2022-08-19T05:54:34;123.45;;;49.22;;
72856;SDS011;62742;52.136;4.500;2022-08-19T05:57:06;115.40;;;46.28;;
72856;SDS011;62742;52.136;4.500;2022-08-19T05:59:34;113.93;;;45.50;;
72856;SDS011;62742;52.136;4.500;2022-08-19T06:02:01;110.70;;;46.90;;
72856;SDS011;62742;52.136;4.500;2022-08-19T06:04:30;106.03;;;44.70;;
72856;SDS011;62742;52.136;4.500;2022-08-19T06:06:57;107.10;;;44.78;;
72856;SDS011;62742;52.136;4.500;2022-08-19T06:09:24;89.05;;;41.85;;
72856;SDS011;62742;52.136;4.500;2022-08-19T06:11:52;99.25;;;44.60;;
72856;SDS011;62742;52.136;4.500;2022-08-19T06:14:26;79.57;;;37.80;;
72856;SDS011;62742;52.136;4.500;2022-08-19T06:16:57;77.72;;;37.08;;
72856;SDS011;62742;52.136;4.500;2022-08-19T06:19:25;79.45;;;39.03;;
72856;SDS011;62742;52.136;4.500;2022-08-19T06:21:54;81.07;;;39.05;;
72856;SDS011;62742;52.136;4.500;2022-08-19T06:24:22;75.10;;;37.63;;
72856;SDS011;62742;52.136;4.500;2022-08-19T06:26:51;75.32;;;38.38;;
72856;SDS011;62742;52.136;4.500;2022-08-19T06:29:21;68.70;;;35.42;;
72856;SDS011;62742;52.136;4.500;2022-08-19T06:31:55;72.93;;;36.67;;
72856;SDS011;62742;52.136;4.500;2022-08-19T06:34:25;65.13;;;33.20;;
72856;SDS011;62742;52.136;4.500;2022-08-19T06:36:54;58.30;;;31.85;;
72856;SDS011;62742;52.136;4.500;2022-08-19T06:39:25;54.03;;;28.30;;
72856;SDS011;62742;52.136;4.500;2022-08-19T06:41:55;48.38;;;27.88;;
72856;SDS011;62742;52.136;4.500;2022-08-19T06:44:27;52.35;;;28.65;;
72856;SDS011;62742;52.136;4.500;2022-08-19T06:47:00;46.50;;;26.88;;
72856;SDS011;62742;52.136;4.500;2022-08-19T06:49:30;47.53;;;27.10;;
72856;SDS011;62742;52.136;4.500;2022-08-19T06:51:58;46.70;;;25.52;;
72856;SDS011;62742;52.136;4.500;2022-08-19T06:54:26;41.20;;;24.15;;
72856;SDS011;62742;52.136;4.500;2022-08-19T06:56:56;45.35;;;23.88;;
72856;SDS011;62742;52.136;4.500;2022-08-19T06:59:27;39.17;;;22.70;;
72856;SDS011;62742;52.136;4.500;2022-08-19T07:01:57;41.63;;;23.00;;
72856;SDS011;62742;52.136;4.500;2022-08-19T07:04:32;35.72;;;22.30;;
72856;SDS011;62742;52.136;4.500;2022-08-19T07:07:03;35.15;;;21.45;;
72856;SDS011;62742;52.136;4.500;2022-08-19T07:09:34;36.75;;;21.33;;
72856;SDS011;62742;52.136;4.500;2022-08-19T07:12:08;36.45;;;20.42;;
72856;SDS011;62742;52.136;4.500;2022-08-19T07:14:38;32.30;;;20.08;;
72856;SDS011;62742;52.136;4.500;2022-08-19T07:17:06;35.60;;;20.85;;
72856;SDS011;62742;52.136;4.500;2022-08-19T07:19:36;36.78;;;20.30;;
72856;SDS011;62742;52.136;4.500;2022-08-19T07:22:05;34.28;;;21.02;;
72856;SDS011;62742;52.136;4.500;2022-08-19T07:24:35;32.15;;;18.83;;
72856;SDS011;62742;52.136;4.500;2022-08-19T07:27:03;30.42;;;20.00;;
72856;SDS011;62742;52.136;4.500;2022-08-19T07:29:32;32.50;;;17.73;;
72856;SDS011;62742;52.136;4.500;2022-08-19T07:32:02;29.05;;;16.35;;
72856;SDS011;62742;52.136;4.500;2022-08-19T07:34:30;35.80;;;17.63;;
72856;SDS011;62742;52.136;4.500;2022-08-19T07:37:03;29.60;;;17.05;;
72856;SDS011;62742;52.136;4.500;2022-08-19T07:39:32;29.20;;;16.35;;
72856;SDS011;62742;52.136;4.500;2022-08-19T07:42:02;26.92;;;15.70;;
72856;SDS011;62742;52.136;4.500;2022-08-19T07:44:33;25.33;;;16.00;;
72856;SDS011;62742;52.136;4.500;2022-08-19T07:47:01;26.10;;;15.05;;
72856;SDS011;62742;52.136;4.500;2022-08-19T07:49:29;28.20;;;16.05;;
72856;SDS011;62742;52.136;4.500;2022-08-19T07:52:02;26.92;;;15.88;;
72856;SDS011;62742;52.136;4.500;2022-08-19T07:57:03;37.35;;;17.30;;
72856;SDS011;62742;52.136;4.500;2022-08-19T07:59:30;28.83;;;16.60;;
72856;SDS011;62742;52.136;4.500;2022-08-19T08:01:57;22.60;;;12.25;;
72856;SDS011;62742;52.136;4.500;2022-08-19T08:04:28;20.13;;;9.70;;
72856;SDS011;62742;52.136;4.500;2022-08-19T08:09:59;22.92;;;8.32;;
72856;SDS011;62742;52.136;4.500;2022-08-19T08:12:28;13.90;;;7.78;;
72856;SDS011;62742;52.136;4.500;2022-08-19T08:15:02;15.90;;;7.50;;
72856;SDS011;62742;52.136;4.500;2022-08-19T08:17:33;14.98;;;7.95;;
72856;SDS011;62742;52.136;4.500;2022-08-19T08:20:05;12.95;;;6.82;;
72856;SDS011;62742;52.136;4.500;2022-08-19T08:22:32;15.13;;;8.52;;
72856;SDS011;62742;52.136;4.500;2022-08-19T08:25:19;16.42;;;8.40;;
72856;SDS011;62742;52.136;4.500;2022-08-19T08:27:48;12.60;;;7.50;;
72856;SDS011;62742;52.136;4.500;2022-08-19T08:30:20;14.60;;;7.90;;
72856;SDS011;62742;52.136;4.500;2022-08-19T08:32:50;14.55;;;7.85;;
72856;SDS011;62742;52.136;4.500;2022-08-19T08:35:18;13.60;;;7.22;;
72856;SDS011;62742;52.136;4.500;2022-08-19T08:37:50;16.67;;;7.63;;
72856;SDS011;62742;52.136;4.500;2022-08-19T08:40:23;12.95;;;6.85;;
72856;SDS011;62742;52.136;4.500;2022-08-19T08:43:22;15.30;;;7.63;;
72856;SDS011;62742;52.136;4.500;2022-08-19T08:46:04;13.48;;;6.90;;
72856;SDS011;62742;52.136;4.500;2022-08-19T08:48:37;11.52;;;6.63;;
72856;SDS011;62742;52.136;4.500;2022-08-19T08:51:40;12.20;;;5.97;;
72856;SDS011;62742;52.136;4.500;2022-08-19T08:54:17;11.52;;;5.43;;
72856;SDS011;62742;52.136;4.500;2022-08-19T08:56:50;14.60;;;6.97;;
72856;SDS011;62742;52.136;4.500;2022-08-19T08:59:20;20.30;;;6.90;;
72856;SDS011;62742;52.136;4.500;2022-08-19T09:02:00;12.07;;;5.72;;
72856;SDS011;62742;52.136;4.500;2022-08-19T09:04:27;16.13;;;6.00;;
72856;SDS011;62742;52.136;4.500;2022-08-19T09:06:57;11.70;;;6.13;;
72856;SDS011;62742;52.136;4.500;2022-08-19T09:09:49;11.43;;;6.05;;
72856;SDS011;62742;52.136;4.500;2022-08-19T09:12:24;13.57;;;6.38;;
72856;SDS011;62742;52.136;4.500;2022-08-19T09:15:22;12.18;;;5.53;;
72856;SDS011;62742;52.136;4.500;2022-08-19T09:18:01;10.60;;;5.18;;
72856;SDS011;62742;52.136;4.500;2022-08-19T09:20:30;13.18;;;5.85;;
72856;SDS011;62742;52.136;4.500;2022-08-19T09:22:57;11.10;;;5.10;;
72856;SDS011;62742;52.136;4.500;2022-08-19T09:25:24;14.13;;;5.47;;
72856;SDS011;62742;52.136;4.500;2022-08-19T09:27:52;10.85;;;5.15;;
72856;SDS011;62742;52.136;4.500;2022-08-19T09:30:24;10.02;;;5.18;;
72856;SDS011;62742;52.136;4.500;2022-08-19T09:32:54;9.65;;;5.50;;
72856;SDS011;62742;52.136;4.500;2022-08-19T09:35:22;12.50;;;5.30;;
72856;SDS011;62742;52.136;4.500;2022-08-19T09:37:55;10.13;;;5.03;;
72856;SDS011;62742;52.136;4.500;2022-08-19T09:40:23;13.63;;;5.70;;
72856;SDS011;62742;52.136;4.500;2022-08-19T09:42:51;11.00;;;5.38;;
72856;SDS011;62742;52.136;4.500;2022-08-19T09:45:19;9.18;;;4.78;;
72856;SDS011;62742;52.136;4.500;2022-08-19T09:47:49;12.10;;;5.03;;
72856;SDS011;62742;52.136;4.500;2022-08-19T09:50:18;10.20;;;4.47;;
72856;SDS011;62742;52.136;4.500;2022-08-19T09:52:45;11.13;;;4.55;;
72856;SDS011;62742;52.136;4.500;2022-08-19T09:55:12;14.95;;;4.10;;
72856;SDS011;62742;52.136;4.500;2022-08-19T09:57:38;8.80;;;4.03;;
72856;SDS011;62742;52.136;4.500;2022-08-19T10:00:06;9.65;;;3.92;;
72856;SDS011;62742;52.136;4.500;2022-08-19T10:02:35;9.80;;;3.70;;
72856;SDS011;62742;52.136;4.500;2022-08-19T10:05:02;8.82;;;3.60;;
72856;SDS011;62742;52.136;4.500;2022-08-19T10:07:47;9.35;;;4.00;;
72856;SDS011;62742;52.136;4.500;2022-08-19T10:10:13;7.95;;;3.72;;
72856;SDS011;62742;52.136;4.500;2022-08-19T10:12:41;7.10;;;3.70;;
72856;SDS011;62742;52.136;4.500;2022-08-19T10:15:13;9.77;;;3.63;;
72856;SDS011;62742;52.136;4.500;2022-08-19T10:17:40;9.80;;;3.47;;
72856;SDS011;62742;52.136;4.500;2022-08-19T10:20:07;9.70;;;3.78;;
72856;SDS011;62742;52.136;4.500;2022-08-19T10:22:35;9.50;;;3.78;;
72856;SDS011;62742;52.136;4.500;2022-08-19T10:25:03;8.98;;;4.35;;
72856;SDS011;62742;52.136;4.500;2022-08-19T10:27:31;9.23;;;4.45;;
72856;SDS011;62742;52.136;4.500;2022-08-19T10:29:58;7.63;;;4.45;;
72856;SDS011;62742;52.136;4.500;2022-08-19T10:32:24;8.20;;;3.58;;
72856;SDS011;62742;52.136;4.500;2022-08-19T10:34:51;9.30;;;3.60;;
72856;SDS011;62742;52.136;4.500;2022-08-19T10:37:18;10.25;;;3.80;;
72856;SDS011;62742;52.136;4.500;2022-08-19T10:39:46;8.48;;;3.10;;
72856;SDS011;62742;52.136;4.500;2022-08-19T10:42:13;5.10;;;2.60;;
72856;SDS011;62742;52.136;4.500;2022-08-19T10:44:41;8.32;;;2.80;;
72856;SDS011;62742;52.136;4.500;2022-08-19T10:47:08;6.90;;;3.20;;
72856;SDS011;62742;52.136;4.500;2022-08-19T10:49:36;8.10;;;2.83;;
72856;SDS011;62742;52.136;4.500;2022-08-19T10:52:22;9.93;;;3.28;;
72856;SDS011;62742;52.136;4.500;2022-08-19T10:55:03;7.03;;;2.80;;
72856;SDS011;62742;52.136;4.500;2022-08-19T10:57:50;8.20;;;2.95;;
72856;SDS011;62742;52.136;4.500;2022-08-19T11:00:21;7.22;;;2.60;;
72856;SDS011;62742;52.136;4.500;2022-08-19T11:02:50;7.15;;;2.60;;
72856;SDS011;62742;52.136;4.500;2022-08-19T11:05:18;8.40;;;2.50;;
72856;SDS011;62742;52.136;4.500;2022-08-19T11:07:45;5.90;;;2.30;;
72856;SDS011;62742;52.136;4.500;2022-08-19T11:10:12;7.38;;;2.53;;
72856;SDS011;62742;52.136;4.500;2022-08-19T11:12:40;7.53;;;2.63;;
72856;SDS011;62742;52.136;4.500;2022-08-19T11:15:07;6.13;;;2.03;;
72856;SDS011;62742;52.136;4.500;2022-08-19T11:17:37;3.88;;;1.88;;
72856;SDS011;62742;52.136;4.500;2022-08-19T11:20:07;8.48;;;2.42;;
72856;SDS011;62742;52.136;4.500;2022-08-19T11:22:36;5.28;;;2.03;;
72856;SDS011;62742;52.136;4.500;2022-08-19T11:25:02;4.95;;;1.80;;
72856;SDS011;62742;52.136;4.500;2022-08-19T11:27:30;3.72;;;1.80;;
72856;SDS011;62742;52.136;4.500;2022-08-19T11:29:57;4.75;;;1.90;;
72856;SDS011;62742;52.136;4.500;2022-08-19T11:32:23;5.53;;;1.90;;
72856;SDS011;62742;52.136;4.500;2022-08-19T11:34:50;5.57;;;2.33;;
72856;SDS011;62742;52.136;4.500;2022-08-19T11:37:17;5.72;;;2.17;;
72856;SDS011;62742;52.136;4.500;2022-08-19T11:39:43;4.65;;;1.95;;
72856;SDS011;62742;52.136;4.500;2022-08-19T11:42:10;6.22;;;2.33;;
72856;SDS011;62742;52.136;4.500;2022-08-19T11:44:54;6.10;;;2.10;;
72856;SDS011;62742;52.136;4.500;2022-08-19T11:47:21;5.25;;;1.95;;
72856;SDS011;62742;52.136;4.500;2022-08-19T11:49:48;3.40;;;1.80;;
72856;SDS011;62742;52.136;4.500;2022-08-19T11:52:14;5.75;;;1.98;;
72856;SDS011;62742;52.136;4.500;2022-08-19T11:54:41;2.90;;;1.80;;
72856;SDS011;62742;52.136;4.500;2022-08-19T11:57:07;5.15;;;1.85;;
72856;SDS011;62742;52.136;4.500;2022-08-19T11:59:34;3.42;;;1.85;;
72856;SDS011;62742;52.136;4.500;2022-08-19T12:02:00;4.78;;;1.95;;
72856;SDS011;62742;52.136;4.500;2022-08-19T12:04:27;3.83;;;1.80;;
72856;SDS011;62742;52.136;4.500;2022-08-19T12:06:54;5.35;;;2.08;;
72856;SDS011;62742;52.136;4.500;2022-08-19T12:09:21;6.57;;;2.03;;
72856;SDS011;62742;52.136;4.500;2022-08-19T12:11:47;5.05;;;1.83;;
72856;SDS011;62742;52.136;4.500;2022-08-19T12:14:16;3.58;;;1.83;;
72856;SDS011;62742;52.136;4.500;2022-08-19T12:16:44;6.65;;;2.28;;
72856;SDS011;62742;52.136;4.500;2022-08-19T12:19:12;4.95;;;2.15;;
72856;SDS011;62742;52.136;4.500;2022-08-19T12:21:38;4.88;;;2.05;;
72856;SDS011;62742;52.136;4.500;2022-08-19T12:24:05;5.70;;;2.47;;
72856;SDS011;62742;52.136;4.500;2022-08-19T12:26:33;3.95;;;1.77;;
72856;SDS011;62742;52.136;4.500;2022-08-19T12:29:00;4.07;;;2.08;;
72856;SDS011;62742;52.136;4.500;2022-08-19T12:31:27;5.63;;;1.90;;
72856;SDS011;62742;52.136;4.500;2022-08-19T12:33:54;7.40;;;2.13;;
72856;SDS011;62742;52.136;4.500;2022-08-19T12:36:21;5.88;;;2.15;;
72856;SDS011;62742;52.136;4.500;2022-08-19T12:38:49;5.90;;;2.47;;
72856;SDS011;62742;52.136;4.500;2022-08-19T12:41:16;4.55;;;2.10;;
72856;SDS011;62742;52.136;4.500;2022-08-19T12:43:44;4.70;;;2.47;;
72856;SDS011;62742;52.136;4.500;2022-08-19T12:46:12;5.03;;;2.00;;
72856;SDS011;62742;52.136;4.500;2022-08-19T12:48:40;5.57;;;2.22;;
72856;SDS011;62742;52.136;4.500;2022-08-19T12:51:11;3.78;;;1.75;;
72856;SDS011;62742;52.136;4.500;2022-08-19T12:53:42;3.78;;;1.80;;
72856;SDS011;62742;52.136;4.500;2022-08-19T12:56:09;3.95;;;1.90;;
72856;SDS011;62742;52.136;4.500;2022-08-19T12:58:40;6.32;;;2.10;;
72856;SDS011;62742;52.136;4.500;2022-08-19T13:01:11;5.85;;;2.10;;
72856;SDS011;62742;52.136;4.500;2022-08-19T13:03:42;5.22;;;2.30;;
72856;SDS011;62742;52.136;4.500;2022-08-19T13:06:11;3.85;;;2.00;;
72856;SDS011;62742;52.136;4.500;2022-08-19T13:08:39;5.70;;;2.22;;
72856;SDS011;62742;52.136;4.500;2022-08-19T13:11:06;4.60;;;1.83;;
72856;SDS011;62742;52.136;4.500;2022-08-19T13:13:39;5.00;;;2.20;;
72856;SDS011;62742;52.136;4.500;2022-08-19T13:16:09;4.97;;;1.77;;
72856;SDS011;62742;52.136;4.500;2022-08-19T13:18:38;3.40;;;1.75;;
72856;SDS011;62742;52.136;4.500;2022-08-19T13:21:08;3.80;;;1.92;;
72856;SDS011;62742;52.136;4.500;2022-08-19T13:23:39;2.78;;;1.60;;
72856;SDS011;62742;52.136;4.500;2022-08-19T13:26:08;3.90;;;1.88;;
72856;SDS011;62742;52.136;4.500;2022-08-19T13:28:37;3.85;;;1.90;;
72856;SDS011;62742;52.136;4.500;2022-08-19T13:31:24;4.35;;;1.90;;
72856;SDS011;62742;52.136;4.500;2022-08-19T13:34:13;3.58;;;1.50;;
72856;SDS011;62742;52.136;4.500;2022-08-19T13:36:42;3.58;;;1.75;;
72856;SDS011;62742;52.136;4.500;2022-08-19T13:39:09;6.60;;;2.40;;
72856;SDS011;62742;52.136;4.500;2022-08-19T13:41:37;5.95;;;2.13;;
72856;SDS011;62742;52.136;4.500;2022-08-19T13:44:16;3.95;;;2.00;;
72856;SDS011;62742;52.136;4.500;2022-08-19T13:46:45;4.03;;;2.13;;
72856;SDS011;62742;52.136;4.500;2022-08-19T13:49:15;4.40;;;1.92;;
72856;SDS011;62742;52.136;4.500;2022-08-19T13:51:42;7.22;;;1.80;;
72856;SDS011;62742;52.136;4.500;2022-08-19T13:54:09;4.15;;;2.10;;
72856;SDS011;62742;52.136;4.500;2022-08-19T13:56:42;5.43;;;1.90;;
72856;SDS011;62742;52.136;4.500;2022-08-19T13:59:10;3.78;;;1.85;;
72856;SDS011;62742;52.136;4.500;2022-08-19T14:01:37;3.40;;;2.00;;
72856;SDS011;62742;52.136;4.500;2022-08-19T14:04:05;3.63;;;1.70;;
72856;SDS011;62742;52.136;4.500;2022-08-19T14:06:33;3.50;;;1.75;;
72856;SDS011;62742;52.136;4.500;2022-08-19T14:08:59;5.03;;;2.22;;
72856;SDS011;62742;52.136;4.500;2022-08-19T14:11:28;4.50;;;2.20;;
72856;SDS011;62742;52.136;4.500;2022-08-19T14:13:55;3.58;;;1.88;;
72856;SDS011;62742;52.136;4.500;2022-08-19T14:16:22;3.38;;;1.60;;
72856;SDS011;62742;52.136;4.500;2022-08-19T14:18:48;4.25;;;1.80;;
72856;SDS011;62742;52.136;4.500;2022-08-19T14:21:16;4.05;;;1.85;;
72856;SDS011;62742;52.136;4.500;2022-08-19T14:23:48;2.97;;;1.88;;
72856;SDS011;62742;52.136;4.500;2022-08-19T14:26:16;4.38;;;2.17;;
72856;SDS011;62742;52.136;4.500;2022-08-19T14:28:45;2.70;;;1.67;;
72856;SDS011;62742;52.136;4.500;2022-08-19T14:31:12;3.42;;;1.70;;
72856;SDS011;62742;52.136;4.500;2022-08-19T14:33:47;3.35;;;1.77;;
72856;SDS011;62742;52.136;4.500;2022-08-19T14:36:16;5.95;;;2.20;;
72856;SDS011;62742;52.136;4.500;2022-08-19T14:38:44;6.75;;;2.13;;
72856;SDS011;62742;52.136;4.500;2022-08-19T14:43:39;5.07;;;1.98;;
72856;SDS011;62742;52.136;4.500;2022-08-19T14:46:06;5.05;;;2.58;;
72856;SDS011;62742;52.136;4.500;2022-08-19T14:48:33;4.20;;;2.10;;
72856;SDS011;62742;52.136;4.500;2022-08-19T14:51:02;5.32;;;2.83;;
72856;SDS011;62742;52.136;4.500;2022-08-19T14:53:28;5.10;;;2.40;;
72856;SDS011;62742;52.136;4.500;2022-08-19T14:55:55;5.85;;;2.40;;
72856;SDS011;62742;52.136;4.500;2022-08-19T14:58:21;6.35;;;2.80;;
72856;SDS011;62742;52.136;4.500;2022-08-19T15:00:48;5.72;;;2.05;;